Time;durP1;ratioP1;P1;durP2;ratioP2;P2;SDS_P1;SDS_P2;PMS_P1;PMS_P2;Temp;Humidity;BMP_temperature;BMP_pressure;BME280_temperature;BME280_humidity;BME280_pressure;Samples;Min_cycle;Max_cycle;Signal;HPM_P1;HPM_P2
2021/03/27 00:00:56;;;;;;;;;;;;;;;13.72;31.97;100777.78;5257514;27;32052;-88
2021/03/27 00:03:38;;;;;;;;;;;;;;;12.75;33.21;100774.09;5258298;27;33536;-88
2021/03/27 00:06:17;;;;;;;;;;;;;;;13.30;32.22;100771.84;5239383;27;33167;-89
2021/03/27 00:08:53;;;;;;;;;;;;;;;12.90;32.84;100770.25;5239080;27;34178;-89
2021/03/27 00:11:29;;;;;;;;;;;;;;;13.97;30.73;100773.59;5256368;27;32752;-89
2021/03/27 00:14:04;;;;;;;;;;;;;;;14.30;29.72;100768.25;5238604;27;33069;-89
2021/03/27 00:16:36;;;;;;;;;;;;;;;14.05;29.86;100772.50;5222300;27;33249;-90
2021/03/27 00:19:30;;;;;;;;;;;;;;;12.65;32.65;100770.81;5257487;27;33352;-89
2021/03/27 00:22:19;;;;;;;;;;;;;;;12.61;32.77;100769.16;5239084;27;32411;-89
2021/03/27 00:25:14;;;;;;;;;;;;;;;13.30;31.47;100761.38;5242397;27;34335;-89
2021/03/27 00:27:57;;;;;;;;;;;;;;;13.43;31.32;100767.19;5223298;27;33800;-89
2021/03/27 00:30:37;;;;;;;;;;;;;;;13.08;32.15;100773.28;5238823;27;33902;-89
2021/03/27 00:33:07;;;;;;;;;;;;;;;13.52;31.33;100766.09;5238536;27;31987;-88
2021/03/27 00:35:43;;;;;;;;;;;;;;;13.71;30.62;100763.84;5239666;27;34450;-89
2021/03/27 00:38:37;;;;;;;;;;;;;;;13.26;31.45;100759.75;5238256;27;34170;-89
2021/03/27 00:41:25;;;;;;;;;;;;;;;13.26;31.73;100758.91;5256310;27;33031;-89
2021/03/27 00:43:57;;;;;;;;;;;;;;;13.27;32.03;100761.47;5221994;27;33433;-89
2021/03/27 00:46:27;;;;;;;;;;;;;;;13.57;31.51;100769.44;5256459;27;33241;-89
2021/03/27 00:49:01;;;;;;;;;;;;;;;13.15;31.64;100773.13;5239473;27;35197;-89
2021/03/27 00:51:42;;;;;;;;;;;;;;;13.47;30.90;100763.59;5240236;27;34179;-88
2021/03/27 00:54:26;;;;;;;;;;;;;;;13.34;30.85;100768.25;5223289;27;32034;-89
2021/03/27 00:57:20;;;;;;;;;;;;;;;13.44;30.78;100762.81;5256804;27;33509;-89
2021/03/27 00:59:59;;;;;;;;;;;;;;;13.26;31.41;100766.75;5260515;27;33639;-87
2021/03/27 01:02:54;;;;;;;;;;;;;;;12.99;31.81;100763.91;5252222;27;33628;-88
2021/03/27 01:05:33;;;;;;;;;;;;;;;12.62;32.25;100763.03;5227171;27;33187;-89
2021/03/27 01:08:17;;;;;;;;;;;;;;;12.42;32.87;100762.63;5246401;27;34770;-88
2021/03/27 01:11:00;;;;;;;;;;;;;;;12.52;32.70;100766.75;5251177;27;34001;-89
2021/03/27 01:13:40;;;;;;;;;;;;;;;12.45;32.96;100766.03;5248061;27;33385;-88
2021/03/27 01:16:17;;;;;;;;;;;;;;;12.48;33.42;100760.72;5224846;27;32103;-89
2021/03/27 01:18:54;;;;;;;;;;;;;;;12.57;33.53;100766.66;5239818;27;34705;-89
2021/03/27 01:21:30;;;;;;;;;;;;;;;12.26;34.14;100760.38;5239344;27;34755;-89
2021/03/27 01:24:05;;;;;;;;;;;;;;;12.46;33.10;100753.84;5274505;27;34294;-89
2021/03/27 01:26:40;;;;;;;;;;;;;;;12.07;33.17;100756.41;5257692;27;33002;-88
2021/03/27 01:29:11;;;;;;;;;;;;;;;11.87;32.53;100749.81;5237697;27;32834;-89
2021/03/27 01:31:52;;;;;;;;;;;;;;;11.62;33.05;100752.91;5274343;27;33313;-88
2021/03/27 01:34:48;;;;;;;;;;;;;;;11.56;33.55;100742.59;5241466;27;34317;-88
2021/03/27 01:37:25;;;;;;;;;;;;;;;11.97;33.10;100742.69;5225750;27;33810;-88
2021/03/27 01:40:16;;;;;;;;;;;;;;;12.38;32.09;100748.78;5255759;27;33529;-88
2021/03/27 01:42:59;;;;;;;;;;;;;;;12.08;32.60;100747.69;5237893;27;34022;-89
2021/03/27 01:45:37;;;;;;;;;;;;;;;12.19;32.99;100754.41;5239490;27;34502;-88
2021/03/27 01:48:19;;;;;;;;;;;;;;;11.89;33.31;100749.81;5239443;27;33669;-89
2021/03/27 01:50:53;;;;;;;;;;;;;;;12.15;33.03;100751.87;5239346;27;33227;-89
2021/03/27 01:53:27;;;;;;;;;;;;;;;11.44;34.43;100751.50;5238969;27;34162;-89
2021/03/27 01:56:17;;;;;;;;;;;;;;;11.70;34.20;100744.94;5255980;27;34977;-89
2021/03/27 01:58:48;;;;;;;;;;;;;;;12.00;33.72;100742.63;5238163;27;32723;-89
2021/03/27 02:01:45;;;;;;;;;;;;;;;12.07;33.52;100751.19;5238833;27;33521;-88
2021/03/27 02:04:24;;;;;;;;;;;;;;;12.03;32.71;100751.25;5228126;27;33688;-89
2021/03/27 02:07:07;;;;;;;;;;;;;;;11.71;33.53;100749.25;5256213;27;33289;-89
2021/03/27 02:09:56;;;;;;;;;;;;;;;12.10;32.59;100748.50;5224893;27;33498;-88
2021/03/27 02:12:46;;;;;;;;;;;;;;;12.99;30.50;100745.59;5240779;27;34198;-89
2021/03/27 02:15:42;;;;;;;;;;;;;;;12.46;31.85;100739.00;5248339;27;33521;-88
2021/03/27 02:18:22;;;;;;;;;;;;;;;11.93;33.30;100735.78;5249549;27;33030;-88
2021/03/27 02:21:01;;;;;;;;;;;;;;;12.03;33.24;100739.94;5260312;27;33287;-88
2021/03/27 02:23:48;;;;;;;;;;;;;;;11.79;33.64;100741.28;5238991;27;33174;-89
2021/03/27 02:26:20;;;;;;;;;;;;;;;11.87;33.45;100744.59;5239289;27;34210;-89
2021/03/27 02:29:00;;;;;;;;;;;;;;;11.70;33.50;100740.56;5238945;27;34165;-89
2021/03/27 02:31:36;;;;;;;;;;;;;;;12.05;33.22;100740.78;5239362;27;34291;-89
2021/03/27 02:34:16;;;;;;;;;;;;;;;11.77;33.73;100735.25;5239249;27;33571;-88
2021/03/27 02:37:01;;;;;;;;;;;;;;;11.93;33.60;100741.00;5240311;27;34259;-89
2021/03/27 02:39:39;;;;;;;;;;;;;;;12.28;32.54;100742.88;5239222;27;34320;-89
2021/03/27 02:42:14;;;;;;;;;;;;;;;11.71;32.92;100741.41;5239157;27;33881;-89
2021/03/27 02:45:17;;;;;;;;;;;;;;;11.87;32.53;100736.75;5238858;27;33124;-89
2021/03/27 02:48:06;;;;;;;;;;;;;;;12.43;31.24;100741.72;5232279;27;33409;-89
2021/03/27 02:50:48;;;;;;;;;;;;;;;11.12;33.83;100741.66;5239602;27;34031;-89
2021/03/27 02:53:22;;;;;;;;;;;;;;;12.36;31.72;100745.34;5257170;27;35117;-89
2021/03/27 02:55:59;;;;;;;;;;;;;;;11.26;33.54;100750.09;5255810;27;33911;-89
2021/03/27 02:58:42;;;;;;;;;;;;;;;11.00;34.10;100754.00;5273992;27;35124;-89
2021/03/27 03:01:17;;;;;;;;;;;;;;;11.12;34.46;100752.09;5256070;27;34668;-89
2021/03/27 03:03:49;;;;;;;;;;;;;;;11.40;33.96;100746.38;5237954;27;33590;-88
2021/03/27 03:06:52;;;;;;;;;;;;;;;11.29;34.18;100754.41;5241343;27;33529;-88
2021/03/27 03:09:48;;;;;;;;;;;;;;;11.12;34.55;100746.88;5254709;27;33415;-89
2021/03/27 03:12:24;;;;;;;;;;;;;;;11.12;34.58;100736.44;5256772;27;33262;-88
2021/03/27 03:15:08;;;;;;;;;;;;;;;11.44;33.68;100738.44;5273464;27;32819;-89
2021/03/27 03:17:58;;;;;;;;;;;;;;;11.19;33.99;100738.91;5240821;27;35129;-89
2021/03/27 03:20:31;;;;;;;;;;;;;;;11.14;34.12;100732.03;5256525;27;33803;-89
2021/03/27 03:23:04;;;;;;;;;;;;;;;10.98;34.46;100728.81;5238533;27;33357;-88
2021/03/27 03:25:39;;;;;;;;;;;;;;;11.41;33.70;100729.81;5255899;27;32533;-89
2021/03/27 03:28:32;;;;;;;;;;;;;;;11.91;32.73;100732.34;5238792;27;34323;-89
2021/03/27 03:31:05;;;;;;;;;;;;;;;11.34;33.69;100736.91;5238606;27;34356;-88
2021/03/27 03:34:02;;;;;;;;;;;;;;;11.31;33.85;100732.59;5238803;27;33310;-89
2021/03/27 03:36:41;;;;;;;;;;;;;;;11.29;33.66;100730.94;5237890;27;32540;-89
2021/03/27 03:39:16;;;;;;;;;;;;;;;11.08;33.89;100738.22;5238728;27;32793;-89
2021/03/27 03:41:57;;;;;;;;;;;;;;;11.20;33.77;100730.19;5238683;27;34273;-88
2021/03/27 03:44:43;;;;;;;;;;;;;;;10.99;34.07;100733.16;5221629;27;33210;-88
2021/03/27 03:47:14;;;;;;;;;;;;;;;11.37;33.55;100723.81;5238269;27;33261;-89
2021/03/27 03:50:25;;;;;;;;;;;;;;;12.31;31.73;100727.16;5241233;27;33657;-88
2021/03/27 03:52:58;;;;;;;;;;;;;;;11.62;32.76;100726.81;5238964;27;34360;-89
2021/03/27 03:55:50;;;;;;;;;;;;;;;11.53;32.92;100727.00;5254969;27;33240;-89
2021/03/27 03:58:39;;;;;;;;;;;;;;;10.80;34.47;100728.25;5262709;27;33264;-88
2021/03/27 04:01:20;;;;;;;;;;;;;;;10.81;34.38;100722.16;5255108;27;34249;-89
2021/03/27 04:04:13;;;;;;;;;;;;;;;10.79;34.37;100734.34;5254959;27;33718;-88
2021/03/27 04:06:45;;;;;;;;;;;;;;;11.09;34.26;100723.44;5238914;27;32994;-89
2021/03/27 04:09:20;;;;;;;;;;;;;;;11.46;33.52;100725.37;5274526;27;33448;-88
2021/03/27 04:11:54;;;;;;;;;;;;;;;10.86;35.00;100729.88;5257223;27;34158;-88
2021/03/27 04:14:30;;;;;;;;;;;;;;;9.88;36.38;100725.19;5257337;27;33477;-90
2021/03/27 04:17:15;;;;;;;;;;;;;;;9.23;37.99;100725.00;5239036;27;34642;-89
2021/03/27 04:19:47;;;;;;;;;;;;;;;8.18;41.39;100729.22;5275269;27;33637;-89
2021/03/27 04:22:24;;;;;;;;;;;;;;;8.89;39.98;100731.38;5255846;27;32856;-89
2021/03/27 04:25:04;;;;;;;;;;;;;;;9.74;38.29;100721.87;5257325;27;34700;-89
2021/03/27 04:27:35;;;;;;;;;;;;;;;8.26;41.14;100727.44;5272936;27;32550;-89
2021/03/27 04:30:33;;;;;;;;;;;;;;;8.09;42.31;100726.69;5255923;27;31801;-89
2021/03/27 04:33:10;;;;;;;;;;;;;;;7.85;42.46;100737.16;5239694;27;35063;-89
2021/03/27 04:35:51;;;;;;;;;;;;;;;9.23;38.86;100733.69;5258258;27;34912;-89
2021/03/27 04:38:27;;;;;;;;;;;;;;;8.90;40.01;100737.47;5239455;27;33423;-89
2021/03/27 04:41:24;;;;;;;;;;;;;;;10.02;37.65;100746.72;5256221;27;32441;-88
2021/03/27 04:44:07;;;;;;;;;;;;;;;8.60;40.10;100745.47;5275470;27;33797;-89
2021/03/27 04:46:56;;;;;;;;;;;;;;;8.91;39.95;100750.44;5264338;27;33215;-87
2021/03/27 04:49:33;;;;;;;;;;;;;;;9.99;37.08;100745.87;5268277;27;33603;-88
2021/03/27 04:52:24;;;;;;;;;;;;;;;9.55;38.05;100748.13;5250927;27;33625;-89
2021/03/27 04:55:07;;;;;;;;;;;;;;;8.86;39.79;100753.06;5274707;27;34883;-89
2021/03/27 04:58:03;;;;;;;;;;;;;;;8.68;40.65;100763.56;5257523;27;34630;-88
2021/03/27 05:00:52;;;;;;;;;;;;;;;8.71;40.95;100763.56;5256904;27;33169;-88
2021/03/27 05:03:31;;;;;;;;;;;;;;;9.32;39.23;100759.59;5239175;27;32458;-88
2021/03/27 05:06:05;;;;;;;;;;;;;;;8.73;39.98;100755.78;5241125;27;33212;-88
2021/03/27 05:08:58;;;;;;;;;;;;;;;10.05;36.90;100758.84;5280152;27;33424;-88
2021/03/27 05:11:37;;;;;;;;;;;;;;;8.73;40.38;100763.56;5244656;27;33124;-88
2021/03/27 05:14:23;;;;;;;;;;;;;;;8.78;41.09;100764.41;5244537;27;33583;-89
2021/03/27 05:17:07;;;;;;;;;;;;;;;9.08;40.36;100762.41;5258263;27;34081;-89
2021/03/27 05:19:51;;;;;;;;;;;;;;;10.86;36.46;100755.97;5241431;27;34191;-89
2021/03/27 05:22:28;;;;;;;;;;;;;;;10.84;36.21;100762.97;5258653;27;34340;-89
2021/03/27 05:25:19;;;;;;;;;;;;;;;10.20;37.65;100756.00;5239418;27;33192;-89
2021/03/27 05:27:54;;;;;;;;;;;;;;;9.40;38.67;100756.06;5239291;27;33640;-89
2021/03/27 05:30:28;;;;;;;;;;;;;;;10.32;36.79;100762.81;5274945;27;33745;-88
2021/03/27 05:33:02;;;;;;;;;;;;;;;9.86;38.94;100768.59;5274223;27;33125;-88
2021/03/27 05:35:53;;;;;;;;;;;;;;;9.12;40.74;100774.50;5240708;27;32978;-88
2021/03/27 05:38:43;;;;;;;;;;;;;;;10.50;37.87;100766.94;5273295;27;32911;-88
2021/03/27 05:41:19;;;;;;;;;;;;;;;11.23;36.43;100765.78;5239747;27;34517;-89
2021/03/27 05:44:09;;;;;;;;;;;;;;;11.49;35.63;100769.69;5238818;27;33161;-89
2021/03/27 05:46:52;;;;;;;;;;;;;;;12.03;34.79;100763.44;5238759;27;32666;-88
2021/03/27 05:49:43;;;;;;;;;;;;;;;10.41;38.46;100763.59;5239116;27;33957;-89
2021/03/27 05:52:39;;;;;;;;;;;;;;;10.08;40.26;100758.78;5239998;27;33631;-90
2021/03/27 05:55:38;;;;;;;;;;;;;;;10.45;39.99;100755.72;5240349;27;35505;-87
2021/03/27 05:58:27;;;;;;;;;;;;;;;10.96;39.07;100760.16;5247107;27;31852;-86
2021/03/27 06:01:03;;;;;;;;;;;;;;;11.26;38.73;100755.31;5268878;27;33458;-86
2021/03/27 06:03:49;;;;;;;;;;;;;;;11.30;38.41;100756.97;5242293;27;33032;-86
2021/03/27 06:06:37;;;;;;;;;;;;;;;11.73;37.61;100757.09;5239040;27;33667;-90
2021/03/27 06:09:30;;;;;;;;;;;;;;;11.88;37.42;100759.37;5259381;27;33886;-90
2021/03/27 06:12:11;;;;;;;;;;;;;;;11.82;37.75;100757.75;5238114;27;34121;-89
2021/03/27 06:15:01;;;;;;;;;;;;;;;12.27;37.29;100756.88;5241941;27;34469;-89
2021/03/27 06:17:33;;;;;;;;;;;;;;;13.15;35.79;100756.56;5238802;27;33760;-90
2021/03/27 06:20:17;;;;;;;;;;;;;;;13.46;35.02;100754.03;5222777;27;33514;-87
2021/03/27 06:22:55;;;;;;;;;;;;;;;14.26;33.94;100747.44;5239071;27;33566;-87
2021/03/27 06:25:51;;;;;;;;;;;;;;;14.12;33.75;100753.06;5239222;27;33191;-87
2021/03/27 06:28:26;;;;;;;;;;;;;;;14.31;33.20;100751.63;5238895;27;35531;-88
2021/03/27 06:31:27;;;;;;;;;;;;;;;14.54;32.71;100757.91;5239662;27;32701;-87
2021/03/27 06:35:23;;;;;;;;;;;;;;;14.78;32.08;100750.22;5154603;27;33105;-87
2021/03/27 06:38:21;;;;;;;;;;;;;;;15.52;30.66;100737.22;5171794;27;33669;-89
2021/03/27 06:41:14;;;;;;;;;;;;;;;15.11;31.25;100739.50;5153379;27;34544;-90
2021/03/27 06:44:19;;;;;;;;;;;;;;;16.09;29.58;100736.91;5153517;27;33766;-89
2021/03/27 06:47:09;;;;;;;;;;;;;;;15.99;29.56;100739.91;5148407;27;32823;-88
2021/03/27 06:50:10;;;;;;;;;;;;;;;16.27;29.19;100741.47;5171476;27;34988;-89
2021/03/27 06:53:00;;;;;;;;;;;;;;;16.26;29.20;100737.16;5208273;27;33054;-88
2021/03/27 06:55:56;;;;;;;;;;;;;;;16.37;29.04;100734.94;5238907;27;32712;-90
2021/03/27 06:58:48;;;;;;;;;;;;;;;15.33;30.97;100737.88;5256874;27;34226;-86
2021/03/27 07:01:47;;;;;;;;;;;;;;;16.06;29.74;100739.66;5240447;27;33191;-90
2021/03/27 07:04:31;;;;;;;;;;;;;;;15.51;30.39;100736.34;5255200;27;34346;-88
2021/03/27 07:07:05;;;;;;;;;;;;;;;15.40;30.79;100732.41;5238600;27;32693;-90
2021/03/27 07:09:59;;;;;;;;;;;;;;;15.92;29.98;100733.16;5239392;27;33987;-87
2021/03/27 07:12:46;;;;;;;;;;;;;;;15.92;29.93;100735.78;5238611;27;33104;-88
2021/03/27 07:15:22;;;;;;;;;;;;;;;16.11;29.64;100740.34;5258065;27;33931;-88
2021/03/27 07:18:16;;;;;;;;;;;;;;;16.83;28.60;100737.50;5243958;27;34070;-87
2021/03/27 07:21:08;;;;;;;;;;;;;;;17.30;27.95;100731.19;5243156;27;34472;-87
2021/03/27 07:23:58;;;;;;;;;;;;;;;16.77;28.76;100737.75;5221023;27;33493;-89
2021/03/27 07:26:29;;;;;;;;;;;;;;;17.55;27.53;100731.87;5256695;27;34038;-90
2021/03/27 07:29:30;;;;;;;;;;;;;;;17.49;27.75;100733.84;5238032;27;32441;-88
2021/03/27 07:32:09;;;;;;;;;;;;;;;18.03;26.90;100735.91;5241293;27;34403;-90
2021/03/27 07:34:44;;;;;;;;;;;;;;;17.78;27.43;100738.78;5255140;27;33217;-88
2021/03/27 07:37:19;;;;;;;;;;;;;;;17.93;27.15;100732.81;5238452;27;33139;-89
2021/03/27 07:39:52;;;;;;;;;;;;;;;18.15;26.97;100737.97;5255988;27;34282;-88
2021/03/27 07:42:29;;;;;;;;;;;;;;;17.57;27.84;100741.44;5275456;27;35077;-89
2021/03/27 07:45:05;;;;;;;;;;;;;;;18.41;26.68;100738.50;5238026;27;34475;-88
2021/03/27 07:47:39;;;;;;;;;;;;;;;18.24;27.01;100733.19;5238034;27;34435;-88
2021/03/27 07:50:23;;;;;;;;;;;;;;;18.37;26.87;100734.31;5237161;27;34025;-89
2021/03/27 07:53:26;;;;;;;;;;;;;;;18.16;27.16;100737.03;5240051;27;33401;-88
2021/03/27 07:56:10;;;;;;;;;;;;;;;18.27;27.23;100733.91;5237634;27;33487;-88
2021/03/27 07:58:46;;;;;;;;;;;;;;;18.17;27.37;100740.53;5256451;27;34037;-86
2021/03/27 08:01:17;;;;;;;;;;;;;;;18.49;27.00;100738.13;5255561;27;34429;-88
2021/03/27 08:03:51;;;;;;;;;;;;;;;17.98;27.87;100741.38;5256053;27;35415;-90
2021/03/27 08:06:32;;;;;;;;;;;;;;;18.53;27.20;100744.97;5239275;27;33556;-89
2021/03/27 08:09:12;;;;;;;;;;;;;;;18.42;27.41;100744.66;5238632;27;35341;-87
2021/03/27 08:11:59;;;;;;;;;;;;;;;17.80;28.65;100747.44;5239680;27;32670;-89
2021/03/27 08:14:52;;;;;;;;;;;;;;;18.15;28.11;100743.25;5256334;27;34930;-87
2021/03/27 08:17:25;;;;;;;;;;;;;;;18.19;28.23;100743.97;5238885;27;33978;-88
2021/03/27 08:19:55;;;;;;;;;;;;;;;17.90;28.52;100735.56;5255977;27;34373;-87
2021/03/27 08:22:31;;;;;;;;;;;;;;;18.23;28.15;100737.59;5238793;27;32782;-89
2021/03/27 08:25:35;;;;;;;;;;;;;;;18.39;28.01;100744.78;5238404;27;35141;-89
2021/03/27 08:28:05;;;;;;;;;;;;;;;18.58;27.79;100740.34;5208186;27;34341;-87
2021/03/27 08:30:41;;;;;;;;;;;;;;;18.00;28.99;100742.19;5264415;27;35068;-89
2021/03/27 08:33:20;;;;;;;;;;;;;;;19.34;27.06;100734.81;5238786;27;32973;-88
2021/03/27 08:36:17;;;;;;;;;;;;;;;19.18;27.24;100739.19;5239311;27;33361;-89
2021/03/27 08:39:22;;;;;;;;;;;;;;;18.47;28.17;100742.66;5257427;27;34486;-88
2021/03/27 08:42:14;;;;;;;;;;;;;;;19.32;26.99;100741.13;5218061;27;33676;-87
2021/03/27 08:44:57;;;;;;;;;;;;;;;19.06;27.51;100730.09;5183152;27;32450;-88
2021/03/27 08:47:30;;;;;;;;;;;;;;;19.32;27.18;100727.91;5201395;27;34051;-87
2021/03/27 08:50:08;;;;;;;;;;;;;;;20.03;26.14;100727.66;5203880;27;33183;-87
2021/03/27 08:52:42;;;;;;;;;;;;;;;19.68;26.72;100724.25;5173833;27;34258;-89
2021/03/27 08:55:21;;;;;;;;;;;;;;;19.16;27.56;100720.75;5173456;27;33843;-88
2021/03/27 08:58:00;;;;;;;;;;;;;;;19.83;26.61;100718.16;5191522;27;34903;-88
2021/03/27 09:00:48;;;;;;;;;;;;;;;20.14;26.09;100721.78;5208429;27;34589;-87
2021/03/27 09:03:37;;;;;;;;;;;;;;;21.13;24.70;100723.25;5190263;27;33148;-87
2021/03/27 09:06:11;;;;;;;;;;;;;;;20.11;26.08;100711.34;5207494;27;32728;-87
2021/03/27 09:08:44;;;;;;;;;;;;;;;20.32;26.11;100711.97;5191236;27;33131;-88
2021/03/27 09:11:30;;;;;;;;;;;;;;;19.84;26.62;100713.75;5174165;27;34383;-87
2021/03/27 09:14:04;;;;;;;;;;;;;;;20.35;26.05;100706.50;5198011;27;33892;-87
2021/03/27 09:16:37;;;;;;;;;;;;;;;19.74;26.81;100704.56;5264919;27;32909;-88
2021/03/27 09:19:11;;;;;;;;;;;;;;;20.48;25.74;100705.81;5264597;27;34551;-88
2021/03/27 09:21:58;;;;;;;;;;;;;;;20.67;25.53;100697.66;5264308;27;34239;-87
2021/03/27 09:24:29;;;;;;;;;;;;;;;20.31;26.15;100699.66;5257921;27;33169;-88
2021/03/27 09:27:17;;;;;;;;;;;;;;;20.00;26.52;100695.25;5238321;27;32744;-88
2021/03/27 09:29:57;;;;;;;;;;;;;;;20.81;25.69;100702.19;5274979;27;33716;-88
2021/03/27 09:32:30;;;;;;;;;;;;;;;20.42;26.32;100691.13;5238670;27;34378;-88
2021/03/27 09:35:10;;;;;;;;;;;;;;;20.59;26.02;100691.94;5238731;27;34423;-87
2021/03/27 09:37:39;;;;;;;;;;;;;;;19.38;27.66;100689.75;5256121;27;33301;-88
2021/03/27 09:40:27;;;;;;;;;;;;;;;18.94;28.78;100689.31;5239276;27;33453;-87
2021/03/27 09:43:15;;;;;;;;;;;;;;;20.62;26.07;100682.03;5256228;27;32919;-88
2021/03/27 09:46:02;;;;;;;;;;;;;;;20.91;25.67;100686.59;5238135;27;33323;-87
2021/03/27 09:48:30;;;;;;;;;;;;;;;20.71;25.81;100680.66;5255170;27;33239;-90
2021/03/27 09:51:06;;;;;;;;;;;;;;;21.79;24.43;100684.78;5238769;27;33627;-87
2021/03/27 09:53:45;;;;;;;;;;;;;;;21.64;24.58;100670.66;5238815;27;33330;-89
2021/03/27 09:56:20;;;;;;;;;;;;;;;20.80;25.68;100671.34;5239853;27;34126;-87
2021/03/27 09:59:07;;;;;;;;;;;;;;;20.67;26.08;100664.09;5274005;27;33235;-88
2021/03/27 10:01:38;;;;;;;;;;;;;;;20.24;26.68;100665.72;5238084;27;34335;-89
2021/03/27 10:04:11;;;;;;;;;;;;;;;20.26;26.61;100672.62;5238068;27;34007;-87
2021/03/27 10:06:57;;;;;;;;;;;;;;;21.24;25.44;100665.16;5256203;27;34766;-89
2021/03/27 10:09:37;;;;;;;;;;;;;;;21.68;24.63;100658.94;5238668;27;32551;-87
2021/03/27 10:12:06;;;;;;;;;;;;;;;22.16;24.09;100655.03;5255745;27;33916;-88
2021/03/27 10:14:37;;;;;;;;;;;;;;;21.32;24.93;100662.03;5237596;27;34144;-89
2021/03/27 10:17:27;;;;;;;;;;;;;;;22.73;23.14;100651.28;5239101;27;34264;-88
2021/03/27 10:19:59;;;;;;;;;;;;;;;22.41;23.45;100645.50;5259688;27;33558;-86
2021/03/27 10:22:29;;;;;;;;;;;;;;;21.90;23.86;100646.97;5285754;27;34300;-86
2021/03/27 10:25:08;;;;;;;;;;;;;;;21.66;24.33;100644.09;5248928;27;34567;-86
2021/03/27 10:27:51;;;;;;;;;;;;;;;22.60;23.23;100650.44;5258591;27;33830;-88
2021/03/27 10:30:18;;;;;;;;;;;;;;;20.95;25.23;100645.72;5237625;27;32481;-87
2021/03/27 10:32:47;;;;;;;;;;;;;;;21.19;25.20;100653.97;5255977;27;34273;-86
2021/03/27 10:35:23;;;;;;;;;;;;;;;21.14;24.80;100640.16;5237801;27;34188;-88
2021/03/27 10:37:50;;;;;;;;;;;;;;;20.64;25.88;100643.06;5238255;27;34497;-88
2021/03/27 10:40:36;;;;;;;;;;;;;;;20.93;25.67;100639.69;5238096;27;33111;-88
2021/03/27 10:43:13;;;;;;;;;;;;;;;20.59;25.96;100642.50;5256794;27;34909;-87
2021/03/27 10:46:01;;;;;;;;;;;;;;;22.45;23.47;100620.44;5237741;27;33998;-88
2021/03/27 10:48:41;;;;;;;;;;;;;;;21.85;24.06;100636.63;5237493;27;33252;-88
2021/03/27 10:51:17;;;;;;;;;;;;;;;21.26;24.75;100631.47;5238122;27;33456;-88
2021/03/27 10:53:46;;;;;;;;;;;;;;;22.87;22.95;100623.81;5256037;27;34511;-87
2021/03/27 10:56:19;;;;;;;;;;;;;;;21.74;24.24;100627.66;5237259;27;34576;-87
2021/03/27 10:58:51;;;;;;;;;;;;;;;21.06;25.28;100627.41;5237939;27;32800;-88
2021/03/27 11:01:27;;;;;;;;;;;;;;;21.55;24.46;100623.53;5199801;27;1031490;-88
2021/03/27 11:04:00;;;;;;;;;;;;;;;21.25;24.99;100627.13;5238056;27;34061;-88
2021/03/27 11:06:43;;;;;;;;;;;;;;;21.09;25.38;100626.38;5237884;27;34165;-88
2021/03/27 11:09:29;;;;;;;;;;;;;;;21.82;24.18;100626.22;5272738;27;33636;-86
2021/03/27 11:12:15;;;;;;;;;;;;;;;21.91;24.29;100608.88;5255751;27;33954;-86
2021/03/27 11:14:45;;;;;;;;;;;;;;;22.32;23.68;100604.44;5237541;27;35363;-86
2021/03/27 11:17:31;;;;;;;;;;;;;;;22.09;24.15;100613.94;5256267;27;35261;-87
2021/03/27 11:20:05;;;;;;;;;;;;;;;22.07;24.06;100618.47;5256193;27;35026;-87
2021/03/27 11:22:37;;;;;;;;;;;;;;;22.19;23.89;100621.19;5237261;27;32746;-88
2021/03/27 11:25:07;;;;;;;;;;;;;;;22.26;23.41;100623.44;5255354;27;33561;-87
2021/03/27 11:27:53;;;;;;;;;;;;;;;22.41;23.54;100611.81;5255370;27;34017;-87
2021/03/27 11:30:30;;;;;;;;;;;;;;;22.28;23.80;100614.44;5237157;27;34521;-86
2021/03/27 11:33:33;;;;;;;;;;;;;;;21.60;24.65;100626.75;5237888;27;32566;-87
2021/03/27 11:36:11;;;;;;;;;;;;;;;22.60;23.20;100615.91;5207594;27;34902;-87
2021/03/27 11:38:48;;;;;;;;;;;;;;;21.62;24.62;100627.50;5233226;27;34879;-87
2021/03/27 11:41:28;;;;;;;;;;;;;;;20.82;25.93;100621.78;5274444;27;34103;-88
2021/03/27 11:43:58;;;;;;;;;;;;;;;21.56;24.90;100619.09;5238472;27;33768;-87
2021/03/27 11:46:30;;;;;;;;;;;;;;;22.84;23.25;100608.06;5274591;27;34143;-87
2021/03/27 11:49:19;;;;;;;;;;;;;;;21.72;24.71;100618.97;5239030;27;32815;-87
2021/03/27 11:51:48;;;;;;;;;;;;;;;21.74;24.82;100604.66;5238978;27;33021;-86
2021/03/27 11:54:18;;;;;;;;;;;;;;;21.39;25.17;100601.56;5239327;27;32933;-87
2021/03/27 11:56:45;;;;;;;;;;;;;;;22.08;24.47;100601.62;5238337;27;33351;-87
2021/03/27 12:02:14;;;;;;;;;;;;;;;21.44;25.42;100588.88;5267173;27;33781;-87
2021/03/27 12:04:51;;;;;;;;;;;;;;;22.18;24.18;100595.59;5249035;27;32985;-87
2021/03/27 12:07:25;;;;;;;;;;;;;;;23.37;22.80;100593.81;5242129;27;34369;-86
2021/03/27 12:09:57;;;;;;;;;;;;;;;22.75;23.01;100598.06;5238484;27;34624;-87
2021/03/27 12:12:30;;;;;;;;;;;;;;;22.61;23.13;100586.56;5274367;27;33861;-88
2021/03/27 12:15:02;;;;;;;;;;;;;;;22.58;23.12;100584.12;5221017;27;33542;-86
2021/03/27 12:17:48;;;;;;;;;;;;;;;23.11;22.17;100584.03;5257083;27;34569;-87
2021/03/27 12:20:21;;;;;;;;;;;;;;;22.53;23.23;100594.22;5239513;27;32974;-87
2021/03/27 12:23:12;;;;;;;;;;;;;;;23.10;22.72;100592.97;5238624;27;35098;-89
2021/03/27 12:25:46;;;;;;;;;;;;;;;22.70;23.17;100595.75;5238548;27;33942;-89
2021/03/27 12:28:16;;;;;;;;;;;;;;;23.47;22.48;100600.19;5238458;27;33253;-86
2021/03/27 12:30:44;;;;;;;;;;;;;;;22.54;23.50;100593.28;5256875;27;34561;-87
2021/03/27 12:33:31;;;;;;;;;;;;;;;22.06;23.85;100592.87;5256924;27;34039;-88
2021/03/27 12:36:07;;;;;;;;;;;;;;;22.09;23.82;100595.38;5221454;27;35042;-88
2021/03/27 12:38:53;;;;;;;;;;;;;;;20.80;25.34;100607.78;5238152;27;34147;-88
2021/03/27 12:41:23;;;;;;;;;;;;;;;20.72;25.26;100599.44;5238429;27;34568;-87
2021/03/27 12:43:51;;;;;;;;;;;;;;;22.08;23.34;100591.84;5238478;27;34997;-87
2021/03/27 12:46:37;;;;;;;;;;;;;;;22.13;23.26;100587.09;5238353;27;32467;-87
2021/03/27 12:49:05;;;;;;;;;;;;;;;21.18;24.94;100591.34;5255883;27;34214;-88
2021/03/27 12:51:43;;;;;;;;;;;;;;;22.22;23.60;100596.25;5255311;27;33757;-88
2021/03/27 12:54:13;;;;;;;;;;;;;;;21.38;24.67;100586.59;5256415;27;33776;-87
2021/03/27 12:57:00;;;;;;;;;;;;;;;21.66;24.47;100591.88;5259877;27;32956;-88
2021/03/27 12:59:37;;;;;;;;;;;;;;;22.94;22.51;100587.03;5239283;27;33198;-86
2021/03/27 13:02:24;;;;;;;;;;;;;;;24.16;21.04;100584.50;5238311;27;34583;-88
2021/03/27 13:05:07;;;;;;;;;;;;;;;24.47;20.81;100578.69;5224186;27;33080;-88
2021/03/27 13:07:46;;;;;;;;;;;;;;;23.81;21.73;100584.44;5238736;27;33088;-86
2021/03/27 13:10:34;;;;;;;;;;;;;;;22.28;23.44;100576.41;5238056;27;33927;-88
2021/03/27 13:13:04;;;;;;;;;;;;;;;22.38;23.74;100566.03;5256961;27;34246;-88
2021/03/27 13:15:31;;;;;;;;;;;;;;;22.40;23.75;100566.81;5256436;27;34454;-88
2021/03/27 13:18:23;;;;;;;;;;;;;;;23.05;22.77;100573.00;5275923;27;33842;-86
2021/03/27 13:20:57;;;;;;;;;;;;;;;23.05;23.23;100573.00;5238494;27;32962;-87
2021/03/27 13:23:55;;;;;;;;;;;;;;;22.80;23.21;100572.91;5257494;27;34934;-88
2021/03/27 13:26:24;;;;;;;;;;;;;;;23.61;22.16;100575.25;5231872;27;32955;-87
2021/03/27 13:28:53;;;;;;;;;;;;;;;24.39;21.12;100562.44;5238244;27;33413;-88
2021/03/27 13:31:21;;;;;;;;;;;;;;;22.74;23.06;100569.81;5237555;27;34248;-87
2021/03/27 13:34:02;;;;;;;;;;;;;;;24.08;21.34;100573.59;5238479;27;34478;-88
2021/03/27 13:36:35;;;;;;;;;;;;;;;24.01;21.13;100582.97;5240139;27;34011;-88
2021/03/27 13:39:04;;;;;;;;;;;;;;;23.12;22.28;100571.59;5238964;27;32529;-86
2021/03/27 13:41:37;;;;;;;;;;;;;;;24.01;21.37;100575.87;5244195;27;34118;-86
2021/03/27 13:44:28;;;;;;;;;;;;;;;23.90;21.62;100578.47;5246264;27;34132;-87
2021/03/27 13:47:11;;;;;;;;;;;;;;;25.33;20.07;100563.16;5272548;27;33397;-86
2021/03/27 13:49:43;;;;;;;;;;;;;;;24.56;20.44;100570.00;5264455;27;33331;-88
2021/03/27 13:52:20;;;;;;;;;;;;;;;23.41;21.83;100569.53;5242416;27;33215;-87